X  Chiuso Dati meteorologici dell'aviazione (METAR)     LIML Milano Linate Airport
Temperatura
15°C Temperatura
15°C Punto di rugiada
100% Umidità



Vento
7 MPH
11 KM/O
3 M/S
6 KTS



290°
ONO
Condizioni attuali

Chiaro Pioggia Chiaro Pioggia
Pressione 1005.08 (hPa) - 29.68 (inHg)
Visibilità 6 (miglio) - 9.7 (km)
Aeroporto
Codice-Aeroporto LIML

Posizione: Milano Linate Airport
Distanza: 6 (mi)

Metar:
LIML 210320Z 29006KT 9999 -RA BKN035 15/15 Q1005 NOSIG

Ore: 21-05-2024 03:20 CEST